Time;durP1;ratioP1;P1;durP2;ratioP2;P2;SDS_P1;SDS_P2;PMS_P1;PMS_P2;Temp;Humidity;BMP_temperature;BMP_pressure;BME280_temperature;BME280_humidity;BME280_pressure;Samples;Min_cycle;Max_cycle;Signal;HPM_P1;HPM_P2
2023/02/12 09:10:20;;;;;;;14.43;12.93;;;8.20;99.90;;;;;;5030908;27;20401;-90
2023/02/12 09:12:47;;;;;;;14.00;12.68;;;8.30;99.90;;;;;;5033649;28;20072;-90
2023/02/12 09:15:12;;;;;;;18.95;14.25;;;8.50;99.90;;;;;;5030633;28;20453;-91
2023/02/12 09:17:50;;;;;;;17.65;14.18;;;8.30;99.90;;;;;;5030028;28;20124;-91
2023/02/12 09:20:16;;;;;;;13.20;12.05;;;9.00;99.90;;;;;;5030221;28;20121;-91
2023/02/12 09:22:42;;;;;;;16.13;11.63;;;8.30;99.90;;;;;;5030420;28;20076;-90
2023/02/12 09:25:16;;;;;;;14.25;12.63;;;8.60;99.90;;;;;;5029787;28;20056;-90
2023/02/12 09:27:42;;;;;;;14.20;12.30;;;9.00;99.90;;;;;;5032216;28;20025;-91
2023/02/12 09:30:08;;;;;;;13.85;12.52;;;8.30;99.90;;;;;;5038951;28;20048;-88
2023/02/12 09:32:34;;;;;;;13.02;11.60;;;8.30;99.90;;;;;;5033297;28;20113;-88
2023/02/12 09:34:59;;;;;;;13.48;12.25;;;9.00;99.90;;;;;;5029575;28;20116;-88
2023/02/12 09:37:25;;;;;;;13.98;12.63;;;8.30;99.90;;;;;;5029514;28;20026;-89
2023/02/12 09:39:56;;;;;;;16.73;13.23;;;8.30;99.90;;;;;;5022002;28;20021;-93
2023/02/12 09:42:52;;;;;;;14.13;12.73;;;8.30;99.90;;;;;;5027683;28;20026;-88
2023/02/12 09:45:28;;;;;;;13.90;12.35;;;8.30;99.90;;;;;;5027369;28;20025;-89
2023/02/12 09:48:31;;;;;;;14.10;11.45;;;9.00;99.90;;;;;;5029905;28;20030;-89
2023/02/12 09:51:02;;;;;;;15.45;12.45;;;8.30;99.90;;;;;;5019296;28;20032;-90
2023/02/12 09:53:29;;;;;;;;;;;8.40;99.90;;;;;;5030231;28;20022;-89
2023/02/12 09:55:55;;;;;;;13.40;12.00;;;9.00;99.90;;;;;;5029784;28;19967;-89
2023/02/12 09:58:38;;;;;;;14.98;11.98;;;8.40;99.90;;;;;;5029217;28;20026;-88
2023/02/12 10:01:11;;;;;;;13.93;12.63;;;9.40;99.90;;;;;;5028216;28;20028;-88
2023/02/12 10:03:37;;;;;;;15.07;12.75;;;9.00;99.90;;;;;;5029398;28;20075;-90
2023/02/12 10:06:07;;;;;;;26.08;13.90;;;8.50;99.90;;;;;;5028804;28;20042;-89
2023/02/12 10:08:36;;;;;;;14.27;12.80;;;8.40;99.90;;;;;;5028725;28;20068;-90
2023/02/12 10:11:27;;;;;;;15.13;13.52;;;8.50;99.90;;;;;;5029027;28;20034;-90
2023/02/12 10:14:14;;;;;;;17.85;14.38;;;8.50;99.90;;;;;;5026542;28;20159;-90
2023/02/12 10:16:48;;;;;;;18.73;12.68;;;8.50;99.90;;;;;;5029135;28;20072;-90
2023/02/12 10:19:34;;;;;;;20.58;14.93;;;8.50;99.90;;;;;;5028899;28;20029;-90
2023/02/12 10:22:17;;;;;;;15.55;13.70;;;8.90;99.90;;;;;;5020440;28;20022;-89
2023/02/12 10:24:49;;;;;;;15.82;13.00;;;9.10;99.90;;;;;;5015223;28;20112;-87
2023/02/12 10:27:24;;;;;;;17.98;14.80;;;9.30;99.90;;;;;;5014255;28;20032;-88
2023/02/12 10:29:50;;;;;;;14.60;13.07;;;9.20;99.90;;;;;;5014729;28;20046;-90
2023/02/12 10:32:31;;;;;;;15.45;13.40;;;9.30;99.90;;;;;;5014519;28;20022;-90
2023/02/12 10:34:58;;;;;;;14.88;13.15;;;9.30;99.90;;;;;;5012829;28;20029;-90
2023/02/12 10:37:42;;;;;;;14.93;13.50;;;9.40;99.90;;;;;;5015353;28;20026;-90
2023/02/12 10:40:28;;;;;;;16.95;12.35;;;10.10;99.90;;;;;;5012514;28;20057;-88
2023/02/12 10:42:56;;;;;;;17.52;14.13;;;8.70;99.90;;;;;;5012583;28;20014;-89
2023/02/12 10:45:27;;;;;;;15.55;14.05;;;9.10;99.90;;;;;;5014846;28;20490;-89
2023/02/12 10:48:14;;;;;;;19.25;12.98;;;9.50;99.90;;;;;;5015005;28;20104;-91
2023/02/12 10:50:51;;;;;;;17.27;14.73;;;8.80;99.90;;;;;;5015256;28;20038;-90
2023/02/12 10:53:24;;;;;;;15.85;14.10;;;8.80;99.90;;;;;;5014850;28;20026;-89
2023/02/12 10:56:10;;;;;;;18.48;16.60;;;8.80;99.90;;;;;;5014900;28;20030;-89
2023/02/12 10:58:41;;;;;;;21.70;19.45;;;8.80;99.90;;;;;;5015251;28;20022;-90
2023/02/12 11:01:24;;;;;;;16.17;14.57;;;8.80;99.90;;;;;;5015060;28;20032;-91
2023/02/12 11:03:51;;;;;;;17.10;13.50;;;8.80;99.90;;;;;;5014556;28;20022;-90
2023/02/12 11:06:30;;;;;;;13.68;12.27;;;9.50;99.90;;;;;;5013741;28;20092;-89
2023/02/12 11:08:57;;;;;;;13.45;12.15;;;8.90;99.90;;;;;;5013550;28;20049;-88
2023/02/12 11:11:30;;;;;;;15.57;12.55;;;9.00;99.90;;;;;;5013845;28;20229;-90
2023/02/12 11:14:05;;;;;;;13.90;12.55;;;9.60;99.90;;;;;;5019790;28;20034;-90
2023/02/12 11:16:36;;;;;;;20.15;13.63;;;9.10;99.90;;;;;;5019170;28;20026;-89
2023/02/12 11:19:07;;;;;;;14.43;12.98;;;8.80;99.90;;;;;;5014575;28;20026;-90
2023/02/12 11:21:45;;;;;;;14.88;13.10;;;9.60;99.90;;;;;;5014970;28;20065;-90
2023/02/12 11:24:32;;;;;;;13.52;12.20;;;10.00;99.90;;;;;;5013814;28;20125;-89
2023/02/12 11:27:14;;;;;;;14.23;12.77;;;9.70;99.90;;;;;;5011002;28;20466;-89
2023/02/12 11:29:47;;;;;;;16.30;13.48;;;8.90;99.90;;;;;;5014427;28;20382;-92
2023/02/12 11:32:19;;;;;;;14.90;13.32;;;8.90;99.90;;;;;;5013343;28;20026;-89
2023/02/12 11:35:06;;;;;;;16.67;14.20;;;9.30;99.90;;;;;;5014018;28;20044;-89
2023/02/12 11:37:35;;;;;;;19.80;14.35;;;8.90;99.90;;;;;;5014080;28;20076;-88
2023/02/12 11:40:04;;;;;;;17.45;13.32;;;9.00;99.90;;;;;;5012404;28;20097;-90
2023/02/12 11:42:36;;;;;;;16.67;13.63;;;8.90;99.90;;;;;;5013587;28;20524;-91
2023/02/12 11:45:03;;;;;;;16.45;13.45;;;9.50;99.90;;;;;;5013214;28;20022;-90
2023/02/12 11:47:34;;;;;;;14.32;12.80;;;8.90;99.90;;;;;;5013782;28;20026;-89
2023/02/12 11:50:23;;;;;;;15.35;13.73;;;9.90;99.90;;;;;;5013734;28;20033;-88
2023/02/12 11:52:51;;;;;;;16.48;13.43;;;8.90;99.90;;;;;;5010881;28;20026;-90
2023/02/12 11:55:23;;;;;;;16.15;14.02;;;9.30;99.90;;;;;;5013924;28;20049;-90
2023/02/12 11:57:59;;;;;;;17.45;13.50;;;8.90;99.90;;;;;;5013726;28;20053;-89
2023/02/12 12:00:40;;;;;;;14.90;13.27;;;9.50;99.90;;;;;;5012793;28;20045;-89
2023/02/12 12:03:18;;;;;;;16.98;12.88;;;9.60;99.90;;;;;;5012651;28;20084;-87
2023/02/12 12:05:54;;;;;;;17.63;13.70;;;8.90;99.90;;;;;;5010004;28;20030;-89
2023/02/12 12:08:30;;;;;;;14.20;12.60;;;8.80;99.90;;;;;;5012587;28;20045;-89
2023/02/12 12:11:08;;;;;;;20.30;13.80;;;9.20;99.90;;;;;;5013316;28;20073;-88
2023/02/12 12:13:41;;;;;;;17.10;13.18;;;8.90;99.90;;;;;;5011475;28;20031;-90
2023/02/12 12:22:38;;;;;;;16.00;13.93;;;9.80;99.90;;;;;;5012853;28;20041;-89
2023/02/12 12:25:07;;;;;;;17.77;13.80;;;9.00;99.90;;;;;;5011398;28;20068;-89
2023/02/12 12:28:02;;;;;;;19.70;13.65;;;9.00;99.90;;;;;;5016031;28;20404;-90
2023/02/12 12:30:53;;;;;;;15.35;13.10;;;8.90;99.90;;;;;;5014963;28;20042;-89
2023/02/12 12:33:18;;;;;;;;;;;8.90;99.90;;;;;;5013522;28;20029;-89
2023/02/12 12:36:13;;;;;;;19.17;14.00;;;9.40;99.90;;;;;;5012835;28;19995;-89
2023/02/12 12:39:06;;;;;;;17.70;13.68;;;9.00;99.90;;;;;;5013107;28;20034;-91
2023/02/12 12:41:58;;;;;;;16.80;14.05;;;9.30;99.90;;;;;;5009936;28;20049;-88
2023/02/12 12:44:50;;;;;;;25.30;16.10;;;9.00;99.90;;;;;;5012702;28;20069;-89
2023/02/12 12:47:53;;;;;;;18.23;13.57;;;9.10;99.90;;;;;;5011794;28;20026;-90
2023/02/12 12:50:42;;;;;;;17.92;13.20;;;9.10;99.90;;;;;;5012921;28;20073;-90
2023/02/12 12:53:16;;;;;;;16.20;12.63;;;9.10;99.90;;;;;;5011335;28;20018;-90
2023/02/12 12:56:07;;;;;;;20.77;13.10;;;9.10;99.90;;;;;;5013071;28;20485;-89
2023/02/12 12:59:11;;;;;;;17.20;12.70;;;8.90;99.90;;;;;;5014629;28;20104;-90
2023/02/12 13:02:12;;;;;;;13.75;12.27;;;9.20;99.90;;;;;;5016924;28;20030;-90
2023/02/12 13:04:51;;;;;;;17.83;13.38;;;9.20;99.90;;;;;;5012281;28;20040;-87
2023/02/12 13:07:58;;;;;;;16.92;14.00;;;9.50;99.90;;;;;;5012849;28;20034;-91
2023/02/12 13:10:33;;;;;;;16.25;12.02;;;9.20;99.90;;;;;;5011715;28;20041;-90
2023/02/12 13:13:14;;;;;;;14.10;12.63;;;9.30;99.90;;;;;;5012789;28;20084;-91
2023/02/12 13:16:09;;;;;;;14.20;12.70;;;9.20;99.90;;;;;;5009085;28;20544;-87
2023/02/12 13:18:34;;;;;;;14.80;12.18;;;9.30;99.90;;;;;;5012292;28;20037;-90
2023/02/12 13:21:33;;;;;;;17.50;13.65;;;9.20;99.90;;;;;;5012830;28;20026;-90
2023/02/12 13:24:16;;;;;;;23.73;15.00;;;9.30;99.90;;;;;;5012592;28;20022;-89
2023/02/12 13:26:54;;;;;;;20.73;13.27;;;9.30;99.90;;;;;;5012651;28;20097;-89
2023/02/12 13:29:43;;;;;;;19.60;13.70;;;9.10;99.90;;;;;;5009112;28;20034;-90
2023/02/12 13:32:15;;;;;;;19.40;13.38;;;9.30;99.90;;;;;;5012192;28;20521;-89
2023/02/12 13:34:43;;;;;;;15.98;14.00;;;9.80;99.90;;;;;;5013029;28;20104;-91
2023/02/12 13:37:17;;;;;;;16.52;13.07;;;10.60;99.90;;;;;;5012450;28;20022;-90
2023/02/12 13:39:47;;;;;;;14.98;13.45;;;9.30;99.90;;;;;;5011542;28;20121;-90
2023/02/12 13:42:39;;;;;;;16.37;13.17;;;9.60;99.90;;;;;;5011807;28;20040;-89
2023/02/12 13:45:18;;;;;;;14.70;12.82;;;9.30;99.90;;;;;;5009600;28;20269;-89
2023/02/12 13:47:50;;;;;;;16.25;13.35;;;9.20;99.90;;;;;;5007881;28;20478;-89
2023/02/12 13:50:30;;;;;;;23.42;13.25;;;10.40;99.90;;;;;;5000653;28;20043;-90
2023/02/12 13:53:14;;;;;;;14.15;12.52;;;9.30;99.90;;;;;;5013441;28;20014;-89
2023/02/12 13:56:09;;;;;;;20.13;13.73;;;9.30;99.90;;;;;;5014276;28;20038;-89
2023/02/12 13:58:38;;;;;;;19.92;14.48;;;9.30;99.90;;;;;;5003569;28;20454;-88
2023/02/12 14:01:25;;;;;;;17.67;13.85;;;9.90;99.90;;;;;;5016103;28;20037;-90
2023/02/12 14:03:50;;;;;;;22.38;15.57;;;9.30;99.90;;;;;;5016458;28;20026;-89
2023/02/12 14:06:19;;;;;;;25.98;16.38;;;9.40;99.90;;;;;;5013972;28;20025;-90
2023/02/12 14:08:53;;;;;;;52.17;23.33;;;9.80;99.90;;;;;;5012020;28;20379;-90
2023/02/12 14:11:22;;;;;;;44.33;20.95;;;9.60;99.90;;;;;;5015979;28;20064;-91
2023/02/12 14:13:59;;;;;;;27.00;16.20;;;10.00;99.90;;;;;;5013451;28;20493;-90
2023/02/12 14:16:30;;;;;;;34.47;17.40;;;9.20;99.90;;;;;;4997171;28;20088;-89
2023/02/12 14:19:33;;;;;;;31.85;16.90;;;9.10;99.90;;;;;;5015786;28;20076;-90
2023/02/12 14:22:00;;;;;;;19.00;14.65;;;9.20;99.90;;;;;;5014965;28;20062;-89
2023/02/12 14:24:52;;;;;;;20.25;15.70;;;9.20;99.90;;;;;;5009156;28;20057;-90
2023/02/12 14:27:29;;;;;;;21.33;15.57;;;9.20;99.90;;;;;;5014573;28;20049;-90
2023/02/12 14:30:10;;;;;;;22.42;15.27;;;9.70;99.90;;;;;;5009458;28;20040;-88
2023/02/12 14:33:02;;;;;;;21.08;16.10;;;9.20;99.90;;;;;;5010904;28;20054;-90
2023/02/12 14:35:41;;;;;;;25.95;17.63;;;10.00;99.90;;;;;;5012474;28;20149;-89
2023/02/12 14:38:16;;;;;;;23.10;17.30;;;10.40;99.90;;;;;;5013359;28;20026;-89
2023/02/12 14:40:45;;;;;;;21.45;17.50;;;10.10;99.90;;;;;;5011528;28;20029;-89
2023/02/12 14:46:23;;;;;;;19.98;16.30;;;9.20;99.90;;;;;;5004303;28;20064;-88
2023/02/12 14:49:06;;;;;;;22.33;17.63;;;9.20;99.90;;;;;;5015500;28;20030;-89
2023/02/12 14:51:37;;;;;;;22.70;17.23;;;9.50;99.90;;;;;;5001777;28;21156;-92
2023/02/12 14:54:04;;;;;;;;;;;9.20;99.90;;;;;;5015008;28;20018;-91
2023/02/12 14:56:40;;;;;;;23.35;17.10;;;9.20;99.90;;;;;;5015679;28;20382;-88
2023/02/12 14:59:12;;;;;;;31.17;18.83;;;9.90;99.90;;;;;;5006198;28;20097;-90
2023/02/12 15:01:38;;;;;;;40.90;21.73;;;9.90;99.90;;;;;;5008825;28;20033;-90
2023/02/12 15:04:16;;;;;;;47.38;23.27;;;9.70;99.90;;;;;;5004559;28;20382;-89
2023/02/12 15:06:59;;;;;;;34.13;20.50;;;9.10;99.90;;;;;;4997259;28;20026;-90
2023/02/12 15:09:40;;;;;;;26.95;18.77;;;9.20;99.90;;;;;;4994201;28;20192;-88
2023/02/12 15:12:13;;;;;;;24.13;18.25;;;9.20;99.90;;;;;;5014752;28;20045;-90
2023/02/12 15:14:49;;;;;;;29.65;21.42;;;9.20;99.90;;;;;;5011418;28;20053;-88
2023/02/12 15:17:24;;;;;;;28.60;20.40;;;9.20;99.90;;;;;;5006489;28;20029;-89
2023/02/12 15:20:15;;;;;;;24.42;19.23;;;9.10;99.90;;;;;;5002427;28;20018;-88
2023/02/12 15:22:42;;;;;;;28.35;19.63;;;9.20;99.90;;;;;;5015058;28;20048;-87
2023/02/12 15:25:25;;;;;;;28.27;20.27;;;9.30;99.90;;;;;;5004773;28;20053;-89
2023/02/12 15:27:59;;;;;;;30.10;20.17;;;9.70;99.90;;;;;;5014821;28;20026;-88
2023/02/12 15:30:29;;;;;;;30.98;19.85;;;9.90;99.90;;;;;;5013362;28;20773;-89
2023/02/12 15:32:58;;;;;;;23.48;17.63;;;9.60;99.90;;;;;;5014666;28;20037;-89
2023/02/12 15:35:38;;;;;;;27.67;19.08;;;10.00;99.90;;;;;;5006552;28;20029;-88
2023/02/12 15:38:06;;;;;;;28.70;19.13;;;9.10;99.90;;;;;;5008260;28;20034;-88
2023/02/12 15:40:32;;;;;;;27.60;19.63;;;9.20;99.90;;;;;;5007101;28;20076;-86
2023/02/12 15:43:00;;;;;;;30.95;20.38;;;9.10;99.90;;;;;;5014096;28;20026;-89
2023/02/12 15:45:38;;;;;;;28.65;19.95;;;9.20;99.90;;;;;;5007873;28;20025;-88
2023/02/12 15:48:20;;;;;;;29.13;20.42;;;9.60;99.90;;;;;;5003631;28;20026;-90
2023/02/12 15:51:04;;;;;;;29.95;20.58;;;9.80;99.90;;;;;;5007801;28;20479;-90
2023/02/12 15:53:29;;;;;;;26.67;19.70;;;9.10;99.90;;;;;;4995961;28;20470;-90
2023/02/12 15:55:56;;;;;;;26.13;19.15;;;9.10;99.90;;;;;;5014015;28;20026;-89
2023/02/12 15:58:22;;;;;;;29.60;20.08;;;9.90;99.90;;;;;;4997529;28;20041;-90
2023/02/12 16:00:48;;;;;;;25.35;18.77;;;9.20;99.90;;;;;;4999817;28;20026;-90
2023/02/12 16:03:27;;;;;;;29.15;19.45;;;9.80;99.90;;;;;;5009551;28;20493;-88
2023/02/12 16:06:02;;;;;;;31.17;19.65;;;9.10;99.90;;;;;;5013453;28;20109;-89
2023/02/12 16:08:30;;;;;;;35.85;21.05;;;9.10;99.90;;;;;;5013313;28;20029;-90
2023/02/12 16:11:18;;;;;;;28.30;19.40;;;9.70;99.90;;;;;;5013977;28;20103;-89
2023/02/12 16:13:50;;;;;;;38.97;20.88;;;10.20;99.90;;;;;;5002715;28;20026;-89
2023/02/12 16:16:49;;;;;;;33.63;20.80;;;9.80;99.90;;;;;;5000596;28;20018;-89
2023/02/12 16:19:19;;;;;;;26.63;19.83;;;9.10;99.90;;;;;;5012764;28;20116;-88
2023/02/12 16:21:49;;;;;;;27.13;20.70;;;9.10;99.90;;;;;;5013879;28;20029;-90
2023/02/12 16:24:51;;;;;;;29.88;21.80;;;8.80;99.90;;;;;;5011436;28;20030;-91
2023/02/12 16:27:20;;;;;;;34.70;21.23;;;9.20;99.90;;;;;;5006661;28;20030;-90
2023/02/12 16:29:52;;;;;;;30.67;22.50;;;9.60;99.90;;;;;;5001784;28;20029;-89
2023/02/12 16:32:32;;;;;;;37.53;24.48;;;9.00;99.90;;;;;;5013313;28;20028;-90
2023/02/12 16:35:03;;;;;;;31.92;21.67;;;9.70;99.90;;;;;;5004044;28;20549;-90
2023/02/12 16:37:37;;;;;;;33.85;22.00;;;9.60;99.90;;;;;;5013774;28;20421;-90
2023/02/12 16:40:09;;;;;;;32.08;22.20;;;9.00;99.90;;;;;;5012721;28;20025;-89
2023/02/12 16:42:34;;;;;;;34.58;22.98;;;9.90;99.90;;;;;;5013212;28;20048;-89
2023/02/12 16:45:00;;;;;;;33.08;24.00;;;9.80;99.90;;;;;;5013316;28;20014;-89
2023/02/12 16:47:26;;;;;;;35.85;23.50;;;9.00;99.90;;;;;;5013684;28;20029;-91
2023/02/12 16:49:59;;;;;;;35.90;23.73;;;9.70;99.90;;;;;;5009814;28;20482;-91
2023/02/12 16:52:39;;;;;;;38.80;24.45;;;8.90;99.90;;;;;;5012289;28;20026;-89
2023/02/12 16:55:23;;;;;;;36.05;23.85;;;9.00;99.90;;;;;;5008132;28;20108;-89
2023/02/12 16:57:49;;;;;;;37.00;21.95;;;8.90;99.90;;;;;;5010145;28;20532;-90
2023/02/12 17:00:16;;;;;;;35.63;22.90;;;8.90;99.90;;;;;;5012934;28;20029;-90
2023/02/12 17:02:42;;;;;;;33.20;23.35;;;8.90;99.90;;;;;;5008850;28;20026;-90
2023/02/12 17:05:09;;;;;;;35.05;23.23;;;8.80;99.90;;;;;;5008849;28;20018;-90
2023/02/12 17:07:34;;;;;;;32.85;23.10;;;8.90;99.90;;;;;;5012909;28;20485;-90
2023/02/12 17:10:00;;;;;;;36.17;23.42;;;9.60;99.90;;;;;;5011087;28;20082;-89
2023/02/12 17:12:26;;;;;;;35.20;23.98;;;8.30;99.90;;;;;;5012102;28;20030;-89
2023/02/12 17:14:52;;;;;;;35.20;23.77;;;8.90;99.90;;;;;;5007343;28;20030;-90
2023/02/12 17:17:18;;;;;;;38.28;23.98;;;8.90;99.90;;;;;;5003310;28;20029;-89
2023/02/12 17:19:43;;;;;;;41.17;24.15;;;8.90;99.90;;;;;;5012945;28;20030;-89
2023/02/12 17:22:23;;;;;;;35.78;24.92;;;8.90;99.90;;;;;;5013328;28;20498;-89
2023/02/12 17:24:50;;;;;;;40.53;24.95;;;9.70;99.90;;;;;;5002260;28;20062;-88
2023/02/12 17:27:19;;;;;;;34.78;24.00;;;8.90;99.90;;;;;;5012613;28;20492;-89
2023/02/12 17:29:45;;;;;;;36.97;23.98;;;8.90;99.90;;;;;;4999254;28;20031;-89
2023/02/12 17:32:11;;;;;;;40.00;24.15;;;8.80;99.90;;;;;;5016513;28;20044;-89
2023/02/12 17:34:37;;;;;;;38.70;23.98;;;8.80;99.90;;;;;;5016799;28;20095;-91
2023/02/12 17:37:03;;;;;;;41.97;24.85;;;8.90;99.90;;;;;;5016629;28;20088;-93
2023/02/12 17:39:29;;;;;;;36.13;24.08;;;9.30;99.90;;;;;;5016727;28;20049;-89
2023/02/12 17:41:55;;;;;;;36.28;24.77;;;8.40;99.90;;;;;;5011627;28;20465;-89
2023/02/12 17:44:20;;;;;;;33.45;23.42;;;8.80;99.90;;;;;;5006136;28;20034;-89
2023/02/12 17:46:46;;;;;;;35.35;24.05;;;8.80;99.90;;;;;;5017096;28;20029;-91
2023/02/12 17:49:12;;;;;;;44.95;24.40;;;9.50;99.90;;;;;;5015993;28;20037;-90
2023/02/12 17:51:37;;;;;;;39.80;23.55;;;9.70;99.90;;;;;;5014482;28;20021;-91
2023/02/12 17:54:03;;;;;;;40.35;25.52;;;9.90;99.90;;;;;;5015426;28;20466;-91
2023/02/12 17:56:30;;;;;;;45.75;27.67;;;8.90;99.90;;;;;;5011620;28;20466;-90
2023/02/12 17:58:56;;;;;;;43.03;28.15;;;9.70;99.90;;;;;;5012606;28;20081;-90
2023/02/12 18:01:23;;;;;;;45.55;26.70;;;9.60;99.90;;;;;;5014009;28;20030;-90
2023/02/12 18:03:50;;;;;;;45.05;28.25;;;8.90;99.90;;;;;;5012245;28;20033;-89
2023/02/12 18:06:25;;;;;;;45.38;28.40;;;9.40;99.90;;;;;;5012655;28;20501;-89
2023/02/12 18:08:51;;;;;;;40.55;25.30;;;8.90;99.90;;;;;;5015468;28;20073;-89
2023/02/12 18:11:18;;;;;;;47.08;29.30;;;10.30;99.90;;;;;;5012006;28;20449;-89
2023/02/12 18:13:44;;;;;;;44.92;28.02;;;8.90;99.90;;;;;;5012834;28;20049;-88
2023/02/12 18:16:10;;;;;;;39.25;24.88;;;8.90;99.90;;;;;;5015453;28;20481;-89
2023/02/12 18:18:37;;;;;;;42.22;25.85;;;8.90;99.90;;;;;;5016265;28;20030;-88
2023/02/12 18:21:12;;;;;;;46.08;28.00;;;8.90;99.90;;;;;;5014904;28;20045;-88
2023/02/12 18:23:38;;;;;;;42.75;26.88;;;8.80;99.90;;;;;;5010818;28;20030;-89
2023/02/12 18:26:06;;;;;;;44.78;26.88;;;10.30;99.90;;;;;;5015424;28;20026;-88
2023/02/12 18:28:32;;;;;;;48.90;26.70;;;8.90;99.90;;;;;;5015703;28;20108;-86
2023/02/12 18:30:58;;;;;;;41.00;25.77;;;8.80;99.90;;;;;;5007010;28;20584;-88
2023/02/12 18:33:24;;;;;;;47.67;27.70;;;8.80;99.90;;;;;;5009706;28;20022;-88
2023/02/12 18:36:00;;;;;;;46.85;27.85;;;8.80;99.90;;;;;;5015220;28;20482;-88
2023/02/12 18:38:27;;;;;;;46.65;28.50;;;8.80;99.90;;;;;;5015279;28;20026;-87
2023/02/12 18:40:53;;;;;;;48.60;27.70;;;8.90;99.90;;;;;;5003619;28;20042;-88
2023/02/12 18:43:18;;;;;;;44.45;26.65;;;8.90;99.90;;;;;;5012360;28;20026;-89
2023/02/12 18:45:44;;;;;;;39.13;25.42;;;8.80;99.90;;;;;;5005713;28;20098;-89
2023/02/12 18:48:10;;;;;;;38.67;23.40;;;8.80;99.90;;;;;;5012272;28;20037;-88
2023/02/12 18:50:37;;;;;;;39.80;23.85;;;8.80;99.90;;;;;;5009081;28;20390;-88
2023/02/12 18:53:03;;;;;;;36.63;23.02;;;9.40;99.90;;;;;;5014479;28;20505;-88
2023/02/12 18:55:28;;;;;;;39.75;24.48;;;8.70;99.90;;;;;;5007542;28;20115;-89
2023/02/12 18:57:54;;;;;;;38.83;23.75;;;9.30;99.90;;;;;;5002468;28;20089;-88
2023/02/12 19:00:23;;;;;;;36.63;22.63;;;8.80;99.90;;;;;;5014611;28;21008;-88
2023/02/12 19:02:48;;;;;;;40.63;22.90;;;9.20;99.90;;;;;;5014890;28;20014;-88
2023/02/12 19:05:14;;;;;;;36.42;23.10;;;10.20;99.90;;;;;;5005769;28;20030;-87
2023/02/12 19:07:39;;;;;;;35.13;22.70;;;8.80;99.90;;;;;;5011022;28;20470;-87
2023/02/12 19:10:06;;;;;;;36.65;22.15;;;8.80;99.90;;;;;;5013867;28;20597;-87
2023/02/12 19:12:31;;;;;;;35.30;23.77;;;8.80;99.90;;;;;;5012322;28;20018;-90
2023/02/12 19:14:57;;;;;;;35.58;23.15;;;9.10;99.90;;;;;;5011742;28;20068;-90
2023/02/12 19:17:22;;;;;;;35.65;22.00;;;10.00;99.90;;;;;;5008541;28;20022;-89
2023/02/12 19:19:49;;;;;;;36.92;23.23;;;8.80;99.90;;;;;;5014677;28;20022;-90
2023/02/12 19:22:16;;;;;;;34.03;22.52;;;8.70;99.90;;;;;;5013592;28;20022;-89
2023/02/12 19:24:41;;;;;;;38.63;23.70;;;9.50;99.90;;;;;;5014377;28;20026;-89
2023/02/12 19:27:07;;;;;;;41.22;23.65;;;9.30;99.90;;;;;;5014188;28;20153;-90
2023/02/12 19:29:32;;;;;;;36.13;22.55;;;9.30;99.90;;;;;;5013985;28;20045;-90
2023/02/12 19:31:58;;;;;;;35.55;23.73;;;9.40;99.90;;;;;;5013004;28;20056;-89
2023/02/12 19:34:25;;;;;;;35.15;23.83;;;9.20;99.90;;;;;;5011395;28;20022;-88
2023/02/12 19:36:51;;;;;;;35.22;22.80;;;9.20;99.90;;;;;;5014371;28;20018;-91
2023/02/12 19:39:20;;;;;;;38.60;23.20;;;9.40;99.90;;;;;;4996144;28;20033;-89
2023/02/12 19:41:47;;;;;;;39.58;24.30;;;9.30;99.90;;;;;;5008776;28;20029;-89
2023/02/12 19:44:16;;;;;;;38.95;25.67;;;9.40;99.90;;;;;;5013927;28;20075;-90
2023/02/12 19:46:42;;;;;;;38.97;24.65;;;8.60;99.90;;;;;;5014494;28;20113;-89
2023/02/12 19:49:14;;;;;;;39.05;24.45;;;8.60;99.90;;;;;;5006438;28;20026;-91
2023/02/12 19:51:40;;;;;;;37.22;24.10;;;9.30;99.90;;;;;;5009589;28;20432;-90
2023/02/12 19:54:07;;;;;;;38.30;25.55;;;10.10;99.90;;;;;;5013379;28;20013;-90
2023/02/12 19:56:34;;;;;;;42.35;25.30;;;9.30;99.90;;;;;;5001045;28;20030;-90
2023/02/12 19:58:59;;;;;;;39.13;24.75;;;9.60;99.90;;;;;;5005422;28;20038;-89
2023/02/12 20:01:26;;;;;;;38.13;24.95;;;8.70;99.90;;;;;;5008603;28;20018;-90
2023/02/12 20:03:53;;;;;;;44.00;28.42;;;9.10;99.90;;;;;;5010550;28;20030;-90
2023/02/12 20:06:21;;;;;;;39.55;23.77;;;8.60;99.90;;;;;;5008544;28;20029;-90
2023/02/12 20:08:47;;;;;;;38.63;24.02;;;8.60;99.90;;;;;;5002415;28;20398;-90
2023/02/12 20:11:23;;;;;;;41.38;26.05;;;8.60;99.90;;;;;;4999880;28;20026;-90
2023/02/12 20:13:49;;;;;;;40.88;25.05;;;9.10;99.90;;;;;;5001341;28;20033;-90
2023/02/12 20:16:21;;;;;;;42.35;25.05;;;9.50;99.90;;;;;;5000972;28;20018;-90
2023/02/12 20:18:49;;;;;;;43.08;25.35;;;8.60;99.90;;;;;;5012446;28;20057;-90
2023/02/12 20:21:24;;;;;;;36.90;23.02;;;8.60;99.90;;;;;;4994001;28;20068;-90
2023/02/12 20:23:50;;;;;;;36.20;23.80;;;8.60;99.90;;;;;;4996260;28;20026;-90
2023/02/12 20:26:17;;;;;;;37.65;23.10;;;8.60;99.90;;;;;;5009167;28;20038;-87
2023/02/12 20:28:42;;;;;;;36.10;22.48;;;8.60;99.90;;;;;;5006321;28;20037;-89
2023/02/12 20:31:17;;;;;;;37.35;23.33;;;8.60;99.90;;;;;;5010445;28;20208;-90
2023/02/12 20:33:43;;;;;;;34.83;21.45;;;8.50;99.90;;;;;;5012972;28;20068;-89
2023/02/12 20:36:11;;;;;;;40.33;23.27;;;8.50;99.90;;;;;;5012729;28;20036;-90
2023/02/12 20:38:38;;;;;;;39.90;24.13;;;8.50;99.90;;;;;;5013455;28;20101;-89
2023/02/12 20:41:05;;;;;;;44.65;25.13;;;8.50;99.90;;;;;;5012647;28;20029;-89
2023/02/12 20:43:32;;;;;;;40.03;25.27;;;8.50;99.90;;;;;;5007077;28;20052;-89
2023/02/12 20:46:07;;;;;;;37.50;23.98;;;8.50;99.90;;;;;;5011006;28;20129;-90
2023/02/12 20:48:32;;;;;;;40.55;23.67;;;8.50;99.90;;;;;;5009108;28;20100;-89
2023/02/12 20:51:08;;;;;;;39.00;24.08;;;8.50;99.90;;;;;;5013430;28;20406;-89
2023/02/12 20:53:34;;;;;;;41.75;24.05;;;8.40;99.90;;;;;;5001340;28;20045;-87
2023/02/12 20:56:05;;;;;;;40.80;24.30;;;8.50;99.90;;;;;;5017005;28;20026;-89
2023/02/12 20:58:30;;;;;;;41.35;25.30;;;8.90;99.90;;;;;;5005479;28;20528;-89
2023/02/12 21:01:09;;;;;;;40.88;24.48;;;8.40;99.90;;;;;;5007808;28;20037;-91
2023/02/12 21:03:35;;;;;;;43.13;25.67;;;8.40;99.90;;;;;;5012474;28;20033;-90
2023/02/12 21:06:01;;;;;;;41.58;26.42;;;8.50;99.90;;;;;;5012952;28;20036;-90
2023/02/12 21:08:27;;;;;;;43.47;26.55;;;8.40;99.90;;;;;;5003760;28;20095;-90
2023/02/12 21:11:10;;;;;;;42.67;23.90;;;8.40;99.90;;;;;;5008847;28;20529;-89
2023/02/12 21:13:37;;;;;;;42.47;25.85;;;8.40;99.90;;;;;;5013213;28;20018;-90
2023/02/12 21:16:10;;;;;;;48.00;26.33;;;8.40;99.90;;;;;;5007550;28;20088;-89
2023/02/12 21:18:36;;;;;;;40.72;25.40;;;8.40;99.90;;;;;;4993624;28;20026;-90
2023/02/12 21:21:04;;;;;;;46.63;25.38;;;8.80;99.90;;;;;;5005937;28;20026;-87
2023/02/12 21:23:31;;;;;;;39.90;25.20;;;8.40;99.90;;;;;;4992768;28;20029;-89
2023/02/12 21:26:04;;;;;;;43.05;26.10;;;8.30;99.90;;;;;;5012571;28;20466;-89
2023/02/12 21:28:31;;;;;;;40.38;25.08;;;8.30;99.90;;;;;;5012898;28;20030;-88
2023/02/12 21:31:17;;;;;;;46.58;26.65;;;9.20;99.90;;;;;;5012149;28;20097;-89
2023/02/12 21:33:46;;;;;;;44.03;26.40;;;8.40;99.90;;;;;;5008562;28;20048;-88
2023/02/12 21:36:31;;;;;;;46.45;26.52;;;8.30;99.90;;;;;;5003386;28;20030;-91
2023/02/12 21:38:57;;;;;;;44.33;25.25;;;8.80;99.90;;;;;;5007821;28;20021;-90
2023/02/12 21:41:24;;;;;;;42.92;26.30;;;8.40;99.90;;;;;;5012840;28;20026;-89
2023/02/12 21:43:52;;;;;;;38.92;24.85;;;8.30;99.90;;;;;;5012947;28;20030;-90
2023/02/12 21:46:21;;;;;;;40.95;24.27;;;8.30;99.90;;;;;;5012717;28;20104;-88
2023/02/12 21:48:46;;;;;;;39.28;24.17;;;8.30;99.90;;;;;;5004972;28;20185;-89
2023/02/12 21:51:29;;;;;;;39.60;23.38;;;8.30;99.90;;;;;;5011870;28;20112;-89
2023/02/12 21:54:01;;;;;;;38.60;23.88;;;8.30;99.90;;;;;;5012520;28;20057;-88
2023/02/12 21:56:27;;;;;;;48.55;27.23;;;8.30;99.90;;;;;;4999326;28;20508;-89
2023/02/12 21:58:53;;;;;;;46.45;27.20;;;8.30;99.90;;;;;;4999981;28;20418;-87
2023/02/12 22:01:22;;;;;;;42.60;26.08;;;8.30;99.90;;;;;;5005576;28;20037;-89
2023/02/12 22:03:49;;;;;;;42.88;26.52;;;8.30;99.90;;;;;;5010255;28;20431;-88
2023/02/12 22:06:17;;;;;;;41.58;25.58;;;8.30;99.90;;;;;;4994119;28;20034;-87
2023/02/12 22:08:48;;;;;;;45.58;25.13;;;8.30;99.90;;;;;;4992963;28;20074;-89
2023/02/12 22:11:14;;;;;;;42.63;25.48;;;8.30;99.90;;;;;;5010291;28;20777;-89
2023/02/12 22:13:39;;;;;;;37.17;24.58;;;8.30;99.90;;;;;;5000190;28;20031;-89
2023/02/12 22:16:16;;;;;;;39.38;23.88;;;8.30;99.90;;;;;;5005509;28;20434;-89
2023/02/12 22:18:42;;;;;;;43.00;25.38;;;8.30;99.90;;;;;;5009465;28;20478;-89
2023/02/12 22:21:10;;;;;;;46.05;26.45;;;9.00;99.90;;;;;;5015473;28;20026;-89
2023/02/12 22:23:36;;;;;;;42.85;25.42;;;8.30;99.90;;;;;;5001986;28;20027;-90
2023/02/12 22:26:14;;;;;;;45.90;26.40;;;8.40;99.90;;;;;;5006560;28;20022;-89